Time;durP1;ratioP1;P1;durP2;ratioP2;P2;SDS_P1;SDS_P2;PMS_P1;PMS_P2;Temp;Humidity;BMP_temperature;BMP_pressure;BME280_temperature;BME280_humidity;BME280_pressure;Samples;Min_cycle;Max_cycle;Signal;HPM_P1;HPM_P2
2024/01/12 06:02:48;;;;;;;117.97;44.93;;;;;;;;;;4963549;29;20508;-75
2024/01/12 06:05:14;;;;;;;122.47;46.80;;;;;;;;;;4958744;28;20433;-75
2024/01/12 06:07:40;;;;;;;146.40;50.73;;;;;;;;;;4949847;28;20614;-76
2024/01/12 06:10:09;;;;;;;142.40;48.87;;;;;;;;;;4938208;28;20498;-75
2024/01/12 06:12:36;;;;;;;156.43;52.63;;;;;;;;;;4917386;29;20455;-75
2024/01/12 06:15:02;;;;;;;144.80;52.27;;;;;;;;;;4933927;29;20460;-72
2024/01/12 06:17:27;;;;;;;142.40;50.27;;;;;;;;;;4938639;29;20479;-75
2024/01/12 06:19:53;;;;;;;147.63;52.90;;;;;;;;;;4938341;29;20421;-76
2024/01/12 06:22:19;;;;;;;142.60;52.60;;;;;;;;;;4927922;29;20608;-75
2024/01/12 06:24:45;;;;;;;137.73;51.00;;;;;;;;;;4917934;29;20497;-75
2024/01/12 06:27:11;;;;;;;145.43;51.10;;;;;;;;;;4918728;29;20482;-75
2024/01/12 06:29:37;;;;;;;138.97;50.17;;;;;;;;;;4948088;28;20409;-75
2024/01/12 06:32:04;;;;;;;150.37;55.00;;;;;;;;;;4936631;29;20777;-75
2024/01/12 06:34:29;;;;;;;161.97;53.50;;;;;;;;;;4937008;29;20426;-76
2024/01/12 06:36:56;;;;;;;165.57;53.20;;;;;;;;;;4936942;29;20468;-75
2024/01/12 06:39:22;;;;;;;150.87;54.00;;;;;;;;;;4936992;29;20449;-74
2024/01/12 06:41:49;;;;;;;141.80;49.57;;;;;;;;;;4935055;29;20461;-73
2024/01/12 06:44:15;;;;;;;149.80;48.33;;;;;;;;;;4932222;29;20434;-73
2024/01/12 06:46:42;;;;;;;142.67;47.70;;;;;;;;;;4917667;29;20517;-74
2024/01/12 06:49:08;;;;;;;140.00;49.97;;;;;;;;;;4917821;29;20844;-73
2024/01/12 06:51:34;;;;;;;150.13;52.97;;;;;;;;;;4932044;29;20485;-74
2024/01/12 06:54:00;;;;;;;160.77;55.63;;;;;;;;;;4917904;29;20419;-73
2024/01/12 06:56:27;;;;;;;157.10;52.70;;;;;;;;;;4920932;29;20422;-73
2024/01/12 06:58:53;;;;;;;170.90;54.93;;;;;;;;;;4948331;28;20464;-72
2024/01/12 07:01:19;;;;;;;147.27;52.67;;;;;;;;;;4934432;29;20843;-73
2024/01/12 07:03:45;;;;;;;142.57;52.00;;;;;;;;;;4934593;29;20426;-73
2024/01/12 07:06:11;;;;;;;159.90;50.90;;;;;;;;;;4935366;29;20506;-73
2024/01/12 07:08:37;;;;;;;159.43;53.90;;;;;;;;;;4922945;29;20465;-73
2024/01/12 07:11:04;;;;;;;144.10;49.43;;;;;;;;;;4916176;29;20431;-73
2024/01/12 07:13:30;;;;;;;161.60;51.53;;;;;;;;;;4919372;29;21018;-74
2024/01/12 07:15:56;;;;;;;151.33;51.40;;;;;;;;;;4923735;29;20446;-74
2024/01/12 07:18:22;;;;;;;154.47;51.10;;;;;;;;;;4933792;29;20501;-75
2024/01/12 07:20:47;;;;;;;136.43;48.80;;;;;;;;;;4918423;29;20564;-73
2024/01/12 07:23:13;;;;;;;147.63;52.73;;;;;;;;;;4920411;29;20865;-73
2024/01/12 07:25:39;;;;;;;132.17;49.07;;;;;;;;;;4917829;29;20622;-74
2024/01/12 07:28:07;;;;;;;139.87;48.90;;;;;;;;;;4917186;29;20434;-73
2024/01/12 07:30:33;;;;;;;142.27;50.93;;;;;;;;;;4918500;29;20461;-75
2024/01/12 07:32:59;;;;;;;127.63;47.47;;;;;;;;;;4929733;28;20438;-74
2024/01/12 07:35:25;;;;;;;134.07;46.97;;;;;;;;;;4916612;29;20470;-72
2024/01/12 07:37:51;;;;;;;132.83;48.47;;;;;;;;;;4932755;29;21056;-74
2024/01/12 07:40:17;;;;;;;131.37;45.43;;;;;;;;;;4919235;29;20469;-72
2024/01/12 07:42:43;;;;;;;145.67;48.03;;;;;;;;;;4916992;29;20602;-77
2024/01/12 07:45:11;;;;;;;129.37;46.20;;;;;;;;;;4938718;29;20497;-75
2024/01/12 07:47:37;;;;;;;128.83;47.63;;;;;;;;;;4929723;29;20437;-74
2024/01/12 07:50:03;;;;;;;147.90;48.53;;;;;;;;;;4919037;29;22436;-74
2024/01/12 07:52:29;;;;;;;145.17;49.70;;;;;;;;;;4931391;28;21421;-74
2024/01/12 07:54:55;;;;;;;133.43;49.90;;;;;;;;;;4930745;29;20564;-75
2024/01/12 07:57:21;;;;;;;134.87;50.00;;;;;;;;;;4914260;29;20450;-75
2024/01/12 07:59:47;;;;;;;129.93;45.10;;;;;;;;;;4933331;29;20835;-75
2024/01/12 08:02:14;;;;;;;123.47;45.70;;;;;;;;;;4920141;29;20843;-75
2024/01/12 08:04:40;;;;;;;135.63;44.87;;;;;;;;;;4916708;29;20751;-75
2024/01/12 08:07:06;;;;;;;123.70;44.40;;;;;;;;;;4928493;29;20457;-76
2024/01/12 08:09:32;;;;;;;138.47;45.07;;;;;;;;;;4919855;29;20437;-75
2024/01/12 08:11:58;;;;;;;120.50;45.03;;;;;;;;;;4925975;29;20457;-75
2024/01/12 08:14:24;;;;;;;123.70;45.50;;;;;;;;;;4921389;29;20896;-70
2024/01/12 08:16:50;;;;;;;133.67;48.40;;;;;;;;;;4934055;29;20826;-72
2024/01/12 08:19:16;;;;;;;110.33;42.90;;;;;;;;;;4933947;29;20472;-72
2024/01/12 08:21:42;;;;;;;118.87;42.37;;;;;;;;;;4934169;29;20465;-72
2024/01/12 08:24:08;;;;;;;101.53;41.13;;;;;;;;;;4915127;29;20419;-71
2024/01/12 08:26:34;;;;;;;121.23;46.27;;;;;;;;;;4914854;29;20422;-73
2024/01/12 08:29:01;;;;;;;100.73;40.80;;;;;;;;;;4915385;29;20557;-75
2024/01/12 08:31:30;;;;;;;123.30;46.67;;;;;;;;;;4929120;29;20445;-76
2024/01/12 08:33:56;;;;;;;121.83;44.77;;;;;;;;;;4941101;29;20413;-74
2024/01/12 08:36:22;;;;;;;122.13;44.43;;;;;;;;;;4938968;29;20875;-75
2024/01/12 08:38:48;;;;;;;119.73;45.70;;;;;;;;;;4939269;29;20512;-74
2024/01/12 08:41:14;;;;;;;115.27;46.10;;;;;;;;;;4940024;29;20488;-74
2024/01/12 08:43:40;;;;;;;123.20;41.03;;;;;;;;;;4940601;29;20540;-74
2024/01/12 08:46:08;;;;;;;104.40;44.97;;;;;;;;;;4926919;29;20864;-75
2024/01/12 08:48:34;;;;;;;117.27;44.30;;;;;;;;;;4922609;29;20421;-76
2024/01/12 08:51:00;;;;;;;114.17;41.83;;;;;;;;;;4936409;29;20900;-75
2024/01/12 08:53:26;;;;;;;103.40;41.90;;;;;;;;;;4941832;29;20413;-75
2024/01/12 08:55:53;;;;;;;104.87;40.33;;;;;;;;;;4940242;29;20516;-75
2024/01/12 08:58:19;;;;;;;102.50;39.33;;;;;;;;;;4942782;29;20413;-74
2024/01/12 09:00:45;;;;;;;91.30;36.80;;;;;;;;;;4942479;29;20604;-73
2024/01/12 09:03:11;;;;;;;103.33;38.87;;;;;;;;;;4940833;29;20559;-75
2024/01/12 09:05:37;;;;;;;101.83;37.80;;;;;;;;;;4940907;29;20428;-77
2024/01/12 09:08:03;;;;;;;91.60;34.57;;;;;;;;;;4941062;29;20417;-76
2024/01/12 09:10:29;;;;;;;90.83;36.87;;;;;;;;;;4941136;29;20527;-75
2024/01/12 09:12:55;;;;;;;89.03;34.70;;;;;;;;;;4941082;29;20436;-74
2024/01/12 09:15:21;;;;;;;102.20;39.40;;;;;;;;;;4940572;29;20421;-74
2024/01/12 09:17:47;;;;;;;86.07;36.10;;;;;;;;;;4939276;29;20432;-74
2024/01/12 09:20:13;;;;;;;90.33;35.20;;;;;;;;;;4934815;29;20793;-75
2024/01/12 09:22:39;;;;;;;95.53;37.67;;;;;;;;;;4930831;29;20900;-74
2024/01/12 09:25:05;;;;;;;92.13;37.40;;;;;;;;;;4940674;29;20428;-74
2024/01/12 09:27:31;;;;;;;90.23;37.03;;;;;;;;;;4940634;29;20413;-75
2024/01/12 09:29:57;;;;;;;86.67;37.10;;;;;;;;;;4939533;29;20938;-74
2024/01/12 09:32:23;;;;;;;95.00;38.10;;;;;;;;;;4941820;29;20771;-74
2024/01/12 09:34:49;;;;;;;93.47;36.63;;;;;;;;;;4955382;29;20849;-75
2024/01/12 09:37:15;;;;;;;99.63;38.30;;;;;;;;;;4945604;29;20449;-74
2024/01/12 09:39:41;;;;;;;110.80;41.93;;;;;;;;;;4928854;29;20478;-74
2024/01/12 09:42:09;;;;;;;90.67;36.87;;;;;;;;;;4932571;29;20480;-74
2024/01/12 09:44:38;;;;;;;98.40;39.43;;;;;;;;;;4936359;29;20427;-75
2024/01/12 09:47:05;;;;;;;109.23;41.80;;;;;;;;;;4937987;29;20948;-74
2024/01/12 09:49:31;;;;;;;95.90;37.50;;;;;;;;;;4936437;29;20468;-74
2024/01/12 09:51:58;;;;;;;95.30;39.10;;;;;;;;;;4937504;29;20477;-74
2024/01/12 09:54:24;;;;;;;88.47;38.03;;;;;;;;;;4938125;29;20413;-74
2024/01/12 09:56:52;;;;;;;100.70;40.63;;;;;;;;;;4936763;29;20942;-74
2024/01/12 09:59:18;;;;;;;90.60;38.40;;;;;;;;;;4940884;29;20417;-75
2024/01/12 10:01:44;;;;;;;113.30;42.50;;;;;;;;;;4932683;29;20508;-75
2024/01/12 10:04:10;;;;;;;112.53;40.83;;;;;;;;;;4929929;29;20418;-74
2024/01/12 10:06:36;;;;;;;94.20;39.07;;;;;;;;;;4938460;29;20432;-75
2024/01/12 10:09:03;;;;;;;95.30;38.87;;;;;;;;;;4937575;29;20720;-75
2024/01/12 10:11:29;;;;;;;104.93;39.90;;;;;;;;;;4937096;29;20447;-74
2024/01/12 10:13:55;;;;;;;98.73;41.93;;;;;;;;;;4941285;29;20432;-75
2024/01/12 10:16:22;;;;;;;103.57;41.70;;;;;;;;;;4941810;29;20452;-74
2024/01/12 10:18:49;;;;;;;108.60;40.50;;;;;;;;;;4941672;29;20429;-75
2024/01/12 10:21:14;;;;;;;86.63;36.27;;;;;;;;;;4937183;29;20513;-75
2024/01/12 10:23:41;;;;;;;102.63;37.90;;;;;;;;;;4936769;29;20512;-76
2024/01/12 10:26:09;;;;;;;105.10;39.90;;;;;;;;;;4941582;29;20437;-73
2024/01/12 10:28:35;;;;;;;100.43;40.37;;;;;;;;;;4956261;29;20426;-75
2024/01/12 10:31:08;;;;;;;103.93;38.87;;;;;;;;;;4957968;29;20951;-73
2024/01/12 10:33:35;;;;;;;98.87;38.20;;;;;;;;;;4956197;29;20448;-73
2024/01/12 10:36:11;;;;;;;90.90;38.67;;;;;;;;;;4953502;29;20420;-73
2024/01/12 10:38:37;;;;;;;104.70;39.17;;;;;;;;;;4932194;29;20410;-75
2024/01/12 10:41:05;;;;;;;91.00;35.03;;;;;;;;;;4952409;28;20510;-74
2024/01/12 10:43:32;;;;;;;91.23;37.00;;;;;;;;;;4958374;28;20485;-73
2024/01/12 10:45:59;;;;;;;86.90;35.50;;;;;;;;;;4951342;29;20488;-74
2024/01/12 10:48:28;;;;;;;100.07;35.17;;;;;;;;;;4928229;29;20415;-73
2024/01/12 10:51:00;;;;;;;96.87;37.10;;;;;;;;;;4941611;29;20577;-75
2024/01/12 10:53:30;;;;;;;85.27;33.77;;;;;;;;;;4941713;29;20406;-75
2024/01/12 10:56:00;;;;;;;91.87;35.97;;;;;;;;;;4937385;29;20460;-75
2024/01/12 10:58:26;;;;;;;87.70;36.67;;;;;;;;;;4936457;29;20412;-70
2024/01/12 11:00:53;;;;;;;78.03;34.93;;;;;;;;;;4937935;29;20449;-72
2024/01/12 11:03:21;;;;;;;79.63;34.43;;;;;;;;;;4935698;29;20473;-76
2024/01/12 11:05:50;;;;;;;90.27;36.50;;;;;;;;;;4938568;29;20921;-74
2024/01/12 11:08:16;;;;;;;80.33;33.33;;;;;;;;;;4938619;29;20968;-76
2024/01/12 11:10:47;;;;;;;100.23;36.20;;;;;;;;;;4923893;29;20479;-77
2024/01/12 11:13:16;;;;;;;100.50;33.53;;;;;;;;;;4936942;29;20464;-76
2024/01/12 11:15:42;;;;;;;77.40;34.63;;;;;;;;;;4941765;29;20418;-78
2024/01/12 11:18:08;;;;;;;86.33;33.80;;;;;;;;;;4939136;29;20513;-76
2024/01/12 11:20:34;;;;;;;78.23;32.23;;;;;;;;;;4935335;29;20952;-76
2024/01/12 11:23:00;;;;;;;83.93;35.13;;;;;;;;;;4917762;29;20472;-76
2024/01/12 11:25:26;;;;;;;78.17;34.50;;;;;;;;;;4917517;29;20414;-76
2024/01/12 11:27:53;;;;;;;77.90;31.30;;;;;;;;;;4916640;29;20423;-76
2024/01/12 11:30:20;;;;;;;84.87;33.23;;;;;;;;;;4918164;29;20413;-76
2024/01/12 11:32:46;;;;;;;100.97;31.80;;;;;;;;;;4916861;29;20420;-75
2024/01/12 11:35:22;;;;;;;91.33;35.07;;;;;;;;;;4915966;29;20474;-75
2024/01/12 11:37:59;;;;;;;73.40;31.37;;;;;;;;;;4916149;29;20782;-75
2024/01/12 11:40:26;;;;;;;76.80;30.13;;;;;;;;;;4921417;29;20481;-76
2024/01/12 11:42:52;;;;;;;84.73;34.23;;;;;;;;;;4919642;29;20518;-76
2024/01/12 11:45:18;;;;;;;87.37;32.40;;;;;;;;;;4913499;29;20929;-75
2024/01/12 11:47:45;;;;;;;86.00;37.20;;;;;;;;;;4915986;29;20904;-76
2024/01/12 11:50:15;;;;;;;84.23;33.50;;;;;;;;;;4916217;29;20478;-75
2024/01/12 11:52:42;;;;;;;82.23;30.60;;;;;;;;;;4928968;29;20430;-74
2024/01/12 11:55:09;;;;;;;83.40;31.67;;;;;;;;;;4934508;29;20793;-73
2024/01/12 11:57:38;;;;;;;70.97;30.07;;;;;;;;;;4935251;29;20498;-75
2024/01/12 12:00:06;;;;;;;89.47;31.90;;;;;;;;;;4917449;29;20422;-74
2024/01/12 12:02:32;;;;;;;75.27;31.57;;;;;;;;;;4915879;29;20481;-73
2024/01/12 12:04:58;;;;;;;80.57;33.20;;;;;;;;;;4916597;29;20504;-74
2024/01/12 12:07:25;;;;;;;70.63;28.80;;;;;;;;;;4920245;29;20437;-75
2024/01/12 12:09:51;;;;;;;73.50;31.47;;;;;;;;;;4934992;29;20785;-74
2024/01/12 12:12:17;;;;;;;74.67;31.47;;;;;;;;;;4934814;29;20441;-76
2024/01/12 12:15:04;;;;;;;86.57;31.87;;;;;;;;;;4964524;23;20603;-75
2024/01/12 12:17:30;;;;;;;78.87;31.03;;;;;;;;;;4972666;28;20427;-74
2024/01/12 12:19:56;;;;;;;77.93;32.80;;;;;;;;;;4973875;28;20418;-74
2024/01/12 12:22:23;;;;;;;66.33;28.57;;;;;;;;;;4973721;28;20475;-74
2024/01/12 12:24:49;;;;;;;78.90;29.30;;;;;;;;;;4974555;28;20466;-74
2024/01/12 12:27:16;;;;;;;80.03;30.53;;;;;;;;;;4974072;28;20871;-73
2024/01/12 12:29:42;;;;;;;70.20;30.70;;;;;;;;;;4973312;28;20423;-74
2024/01/12 12:32:14;;;;;;;73.37;30.97;;;;;;;;;;4973236;28;20412;-76
2024/01/12 12:34:41;;;;;;;74.73;31.80;;;;;;;;;;4974389;28;20760;-75
2024/01/12 12:37:13;;;;;;;78.73;31.97;;;;;;;;;;4979398;28;20440;-74
2024/01/12 12:39:39;;;;;;;79.73;32.17;;;;;;;;;;4972707;28;20507;-74
2024/01/12 12:42:05;;;;;;;79.20;31.37;;;;;;;;;;4972822;28;20459;-75
2024/01/12 12:44:32;;;;;;;76.43;33.40;;;;;;;;;;4973652;28;20435;-72
2024/01/12 12:46:59;;;;;;;79.50;30.40;;;;;;;;;;4975232;28;20495;-74
2024/01/12 12:49:31;;;;;;;89.20;34.60;;;;;;;;;;4976088;28;20500;-75
2024/01/12 12:51:58;;;;;;;78.33;31.97;;;;;;;;;;4976814;28;20438;-74
2024/01/12 12:54:27;;;;;;;80.40;36.27;;;;;;;;;;4977205;28;20479;-75
2024/01/12 12:56:53;;;;;;;78.43;36.07;;;;;;;;;;4975257;28;20762;-75
2024/01/12 12:59:19;;;;;;;74.43;31.90;;;;;;;;;;4979202;28;20433;-74
2024/01/12 13:01:45;;;;;;;78.90;33.47;;;;;;;;;;4984420;28;20463;-74
2024/01/12 13:04:11;;;;;;;80.47;33.40;;;;;;;;;;4984142;28;20453;-78
2024/01/12 13:06:37;;;;;;;85.03;34.43;;;;;;;;;;4983230;28;20423;-74
2024/01/12 13:09:06;;;;;;;80.23;31.20;;;;;;;;;;4983729;28;20993;-73
2024/01/12 13:11:32;;;;;;;75.73;32.80;;;;;;;;;;4980747;28;20428;-75
2024/01/12 13:13:57;;;;;;;74.93;31.40;;;;;;;;;;4979561;28;20512;-76
2024/01/12 13:16:23;;;;;;;76.20;33.80;;;;;;;;;;4974271;28;20499;-74
2024/01/12 13:18:49;;;;;;;72.73;31.27;;;;;;;;;;4976258;28;20415;-73
2024/01/12 13:21:15;;;;;;;76.27;34.43;;;;;;;;;;4976702;28;21013;-76
2024/01/12 13:23:41;;;;;;;91.57;35.70;;;;;;;;;;4977025;28;20835;-75
2024/01/12 13:26:07;;;;;;;82.87;32.83;;;;;;;;;;4975899;28;20918;-74
2024/01/12 13:28:33;;;;;;;84.13;36.10;;;;;;;;;;4974198;28;20440;-73
2024/01/12 13:30:59;;;;;;;81.63;34.13;;;;;;;;;;4970710;28;20430;-76
2024/01/12 13:33:26;;;;;;;88.53;36.43;;;;;;;;;;4973405;28;20989;-76
2024/01/12 13:35:52;;;;;;;86.10;31.93;;;;;;;;;;4976879;28;20439;-76
2024/01/12 13:38:18;;;;;;;72.00;33.53;;;;;;;;;;4971037;28;20512;-76
2024/01/12 13:40:44;;;;;;;87.03;34.40;;;;;;;;;;4972919;28;20463;-76
2024/01/12 13:43:10;;;;;;;83.13;35.80;;;;;;;;;;4958058;28;20494;-77
2024/01/12 13:45:36;;;;;;;79.90;34.33;;;;;;;;;;4964175;28;20440;-76
2024/01/12 13:48:07;;;;;;;75.50;32.73;;;;;;;;;;4977314;28;20415;-74
2024/01/12 13:50:33;;;;;;;82.33;34.03;;;;;;;;;;4977702;28;20790;-76
2024/01/12 13:53:00;;;;;;;82.93;31.50;;;;;;;;;;4976520;28;20435;-75
2024/01/12 13:55:26;;;;;;;71.53;33.70;;;;;;;;;;4975523;28;20439;-75
2024/01/12 13:57:53;;;;;;;88.77;35.10;;;;;;;;;;4976062;28;20446;-75
2024/01/12 14:00:19;;;;;;;94.57;35.87;;;;;;;;;;4976200;28;20516;-73
2024/01/12 14:02:45;;;;;;;78.97;35.67;;;;;;;;;;4992924;28;20527;-74
2024/01/12 14:05:12;;;;;;;82.53;32.73;;;;;;;;;;4985176;28;20447;-74
2024/01/12 14:07:38;;;;;;;81.13;32.70;;;;;;;;;;4979175;28;20416;-75
2024/01/12 14:10:06;;;;;;;87.07;34.20;;;;;;;;;;4972311;28;20635;-75
2024/01/12 14:12:32;;;;;;;82.70;33.07;;;;;;;;;;4970491;28;20428;-75
2024/01/12 14:14:58;;;;;;;75.90;33.47;;;;;;;;;;4965849;28;20463;-76
2024/01/12 14:17:24;;;;;;;82.70;32.90;;;;;;;;;;4970026;28;20420;-76
2024/01/12 14:19:50;;;;;;;85.00;32.83;;;;;;;;;;4977861;28;20480;-77
2024/01/12 14:22:16;;;;;;;95.67;32.77;;;;;;;;;;4977586;28;20818;-75
2024/01/12 14:24:42;;;;;;;86.57;32.33;;;;;;;;;;4979180;28;20432;-74
2024/01/12 14:27:08;;;;;;;97.43;35.97;;;;;;;;;;4969425;28;20424;-74
2024/01/12 14:29:35;;;;;;;90.07;33.10;;;;;;;;;;4975475;28;20419;-75
2024/01/12 14:32:02;;;;;;;77.43;32.83;;;;;;;;;;4970053;28;20409;-74
2024/01/12 14:34:28;;;;;;;74.40;33.10;;;;;;;;;;4977252;28;20423;-76
2024/01/12 14:36:54;;;;;;;89.40;32.73;;;;;;;;;;4976173;28;20412;-75
2024/01/12 14:39:20;;;;;;;86.73;33.30;;;;;;;;;;4960308;28;20427;-73
2024/01/12 14:41:47;;;;;;;95.67;36.73;;;;;;;;;;4968214;28;20475;-76
2024/01/12 14:44:13;;;;;;;87.30;35.50;;;;;;;;;;4957980;28;20468;-76
2024/01/12 14:46:40;;;;;;;93.97;33.20;;;;;;;;;;4954324;28;20507;-73
2024/01/12 14:49:06;;;;;;;85.07;33.00;;;;;;;;;;4975084;28;20414;-72
2024/01/12 14:51:32;;;;;;;95.70;34.53;;;;;;;;;;4975061;28;20470;-72
2024/01/12 14:53:58;;;;;;;85.67;32.43;;;;;;;;;;4974773;28;20467;-73
2024/01/12 14:56:24;;;;;;;88.80;32.70;;;;;;;;;;4974533;28;20418;-73
2024/01/12 14:58:51;;;;;;;96.20;36.87;;;;;;;;;;4974726;28;20412;-73
2024/01/12 15:01:18;;;;;;;85.00;32.50;;;;;;;;;;4974703;28;20412;-73
2024/01/12 15:03:44;;;;;;;88.57;34.47;;;;;;;;;;4974483;28;20423;-73
2024/01/12 15:06:10;;;;;;;96.83;35.77;;;;;;;;;;4974288;28;20396;-73
2024/01/12 15:08:38;;;;;;;92.93;33.87;;;;;;;;;;4974694;28;20911;-73
2024/01/12 15:11:04;;;;;;;87.50;31.70;;;;;;;;;;4975326;28;20415;-73
2024/01/12 15:13:30;;;;;;;68.60;29.53;;;;;;;;;;4974848;28;20410;-71
2024/01/12 15:15:56;;;;;;;82.57;30.83;;;;;;;;;;4973764;28;20458;-72
2024/01/12 15:18:23;;;;;;;80.20;31.53;;;;;;;;;;4990757;28;20404;-71
2024/01/12 15:20:53;;;;;;;91.17;33.37;;;;;;;;;;4992017;28;20411;-72
2024/01/12 15:23:19;;;;;;;94.30;35.10;;;;;;;;;;4992531;28;20475;-71
2024/01/12 15:25:45;;;;;;;91.27;31.20;;;;;;;;;;4990686;28;20859;-72
2024/01/12 15:28:12;;;;;;;81.93;30.60;;;;;;;;;;4987089;28;20517;-73
2024/01/12 15:30:38;;;;;;;91.67;31.70;;;;;;;;;;4976036;28;20408;-73
2024/01/12 15:33:04;;;;;;;95.90;35.73;;;;;;;;;;4976104;28;20455;-73
2024/01/12 15:35:30;;;;;;;96.50;33.43;;;;;;;;;;4975675;28;20600;-73
2024/01/12 15:37:56;;;;;;;83.83;30.00;;;;;;;;;;4976196;28;20427;-73
2024/01/12 15:40:22;;;;;;;83.53;30.37;;;;;;;;;;4976142;28;20511;-72
2024/01/12 15:42:48;;;;;;;87.83;29.90;;;;;;;;;;4975061;28;20474;-73
2024/01/12 15:45:14;;;;;;;94.20;31.27;;;;;;;;;;4975328;28;20424;-74
2024/01/12 15:47:40;;;;;;;99.47;32.90;;;;;;;;;;4974318;28;20421;-73
2024/01/12 15:50:07;;;;;;;91.73;30.33;;;;;;;;;;4977480;28;20888;-72
2024/01/12 15:52:33;;;;;;;96.87;33.23;;;;;;;;;;4976203;28;20482;-74
2024/01/12 15:54:59;;;;;;;96.70;32.87;;;;;;;;;;4973272;28;20436;-74
2024/01/12 15:57:25;;;;;;;89.60;31.43;;;;;;;;;;4976788;28;20419;-72
2024/01/12 15:59:51;;;;;;;106.40;32.10;;;;;;;;;;4971959;28;20490;-74
2024/01/12 16:02:17;;;;;;;79.17;30.37;;;;;;;;;;4969185;28;20469;-73
2024/01/12 16:04:43;;;;;;;86.90;32.10;;;;;;;;;;4974647;28;20434;-74
2024/01/12 16:07:09;;;;;;;85.10;30.23;;;;;;;;;;4973708;28;20419;-74
2024/01/12 16:09:38;;;;;;;79.30;27.47;;;;;;;;;;4974502;28;20408;-74
2024/01/12 16:12:06;;;;;;;78.30;28.33;;;;;;;;;;4967420;28;20437;-75
2024/01/12 16:14:39;;;;;;;81.80;28.23;;;;;;;;;;4970753;28;20958;-75
2024/01/12 16:17:05;;;;;;;84.50;30.73;;;;;;;;;;4973229;28;20420;-74
2024/01/12 16:19:31;;;;;;;78.50;29.30;;;;;;;;;;4973871;28;20447;-73
2024/01/12 16:21:57;;;;;;;81.90;28.93;;;;;;;;;;4973444;28;20471;-74
2024/01/12 16:24:24;;;;;;;83.73;30.67;;;;;;;;;;4973719;28;20512;-72
2024/01/12 16:26:50;;;;;;;76.30;27.10;;;;;;;;;;4974144;28;20424;-75
2024/01/12 16:29:16;;;;;;;82.90;28.17;;;;;;;;;;4974129;28;20783;-74
2024/01/12 16:31:42;;;;;;;89.20;31.93;;;;;;;;;;4973788;28;20434;-74
2024/01/12 16:34:09;;;;;;;74.87;28.97;;;;;;;;;;4974063;28;20518;-75
2024/01/12 16:36:35;;;;;;;83.03;30.17;;;;;;;;;;4973710;28;20424;-74
2024/01/12 16:39:02;;;;;;;92.10;27.73;;;;;;;;;;4974182;28;20499;-74
2024/01/12 16:41:28;;;;;;;89.30;29.07;;;;;;;;;;4973645;28;20783;-75
2024/01/12 16:43:53;;;;;;;72.43;27.13;;;;;;;;;;4973937;28;20455;-75
2024/01/12 16:46:19;;;;;;;95.30;29.20;;;;;;;;;;4973266;28;20543;-74
2024/01/12 16:48:46;;;;;;;85.83;29.10;;;;;;;;;;4973816;28;20415;-74
2024/01/12 16:51:16;;;;;;;85.93;29.53;;;;;;;;;;4975110;28;20416;-75
2024/01/12 16:53:42;;;;;;;83.67;29.20;;;;;;;;;;4979819;28;20427;-73
2024/01/12 16:56:08;;;;;;;84.70;27.80;;;;;;;;;;4977177;28;20426;-75
2024/01/12 16:58:35;;;;;;;87.37;28.50;;;;;;;;;;4977796;28;20415;-74
2024/01/12 17:01:03;;;;;;;81.17;28.73;;;;;;;;;;4977995;28;20411;-73
2024/01/12 17:03:30;;;;;;;82.03;28.17;;;;;;;;;;4977922;28;20993;-74
2024/01/12 17:05:56;;;;;;;81.97;28.50;;;;;;;;;;4978175;28;20519;-73
2024/01/12 17:08:22;;;;;;;86.60;29.43;;;;;;;;;;4976506;28;20412;-74
2024/01/12 17:10:48;;;;;;;89.97;31.17;;;;;;;;;;4977495;28;20899;-74
2024/01/12 17:13:14;;;;;;;91.90;32.63;;;;;;;;;;4977187;28;20824;-74
2024/01/12 17:15:41;;;;;;;85.57;30.17;;;;;;;;;;4976914;28;20510;-74
2024/01/12 17:18:07;;;;;;;88.80;30.23;;;;;;;;;;4975540;28;20437;-73
2024/01/12 17:20:33;;;;;;;81.67;27.73;;;;;;;;;;4977372;28;20400;-73
2024/01/12 17:22:59;;;;;;;76.03;27.77;;;;;;;;;;4975586;28;20505;-72
2024/01/12 17:25:25;;;;;;;78.87;28.27;;;;;;;;;;4977087;28;20518;-73
2024/01/12 17:27:51;;;;;;;82.30;28.87;;;;;;;;;;4976757;28;20451;-73
2024/01/12 17:30:17;;;;;;;85.00;29.27;;;;;;;;;;4977448;28;20479;-74
2024/01/12 17:32:44;;;;;;;86.47;28.83;;;;;;;;;;4977121;28;20441;-74
2024/01/12 17:35:10;;;;;;;97.00;32.33;;;;;;;;;;4976998;28;20459;-75
2024/01/12 17:37:41;;;;;;;97.70;31.10;;;;;;;;;;4979730;28;20411;-75
2024/01/12 17:40:08;;;;;;;95.40;29.67;;;;;;;;;;4971985;28;20478;-74
2024/01/12 17:42:35;;;;;;;80.67;27.57;;;;;;;;;;4983359;28;20468;-75
2024/01/12 17:45:02;;;;;;;79.57;28.23;;;;;;;;;;4986965;28;20930;-76
2024/01/12 17:47:28;;;;;;;88.40;29.50;;;;;;;;;;4995147;28;20473;-74
2024/01/12 17:49:54;;;;;;;92.97;27.60;;;;;;;;;;4960803;28;20448;-75
2024/01/12 17:52:21;;;;;;;85.03;28.53;;;;;;;;;;4970688;28;20424;-75
2024/01/12 17:54:48;;;;;;;85.70;28.73;;;;;;;;;;4982950;28;20524;-75
2024/01/12 17:57:14;;;;;;;104.90;27.63;;;;;;;;;;4990520;28;20451;-75
2024/01/12 17:59:40;;;;;;;83.97;29.20;;;;;;;;;;4989709;28;20450;-75
2024/01/12 18:02:06;;;;;;;86.27;28.93;;;;;;;;;;4982650;28;20472;-76
2024/01/12 18:04:32;;;;;;;109.67;30.73;;;;;;;;;;4978372;28;20439;-75
2024/01/12 18:06:58;;;;;;;97.53;32.27;;;;;;;;;;4966522;28;20413;-76
2024/01/12 18:09:24;;;;;;;96.53;29.33;;;;;;;;;;4962667;28;20424;-74
2024/01/12 18:11:51;;;;;;;84.17;29.33;;;;;;;;;;4974615;28;20451;-75
2024/01/12 18:14:17;;;;;;;82.80;26.97;;;;;;;;;;4988537;23;20830;-76
2024/01/12 18:16:43;;;;;;;93.70;32.33;;;;;;;;;;5018212;28;20792;-75
2024/01/12 18:19:08;;;;;;;100.77;31.57;;;;;;;;;;5001711;28;20820;-73
2024/01/12 18:21:34;;;;;;;81.77;27.47;;;;;;;;;;4995809;28;20910;-76
2024/01/12 18:24:00;;;;;;;96.13;28.97;;;;;;;;;;5006011;28;20761;-72
2024/01/12 18:26:26;;;;;;;77.30;27.70;;;;;;;;;;4986059;28;20432;-73
2024/01/12 18:28:52;;;;;;;77.90;27.93;;;;;;;;;;4993985;28;20491;-75
2024/01/12 18:31:19;;;;;;;73.20;26.53;;;;;;;;;;4994098;28;20411;-75
2024/01/12 18:33:46;;;;;;;94.77;30.40;;;;;;;;;;4994779;28;20963;-75
2024/01/12 18:36:14;;;;;;;90.23;27.57;;;;;;;;;;4994607;28;20465;-75
2024/01/12 18:38:39;;;;;;;86.97;28.87;;;;;;;;;;4994155;28;20441;-75
2024/01/12 18:41:06;;;;;;;81.80;29.20;;;;;;;;;;4980165;28;20420;-75
2024/01/12 18:43:31;;;;;;;80.13;27.10;;;;;;;;;;4975945;28;20470;-76
2024/01/12 18:45:58;;;;;;;79.27;27.37;;;;;;;;;;4974768;28;20787;-75
2024/01/12 18:48:25;;;;;;;81.47;27.20;;;;;;;;;;4974964;28;20887;-75
2024/01/12 18:50:51;;;;;;;91.03;29.17;;;;;;;;;;4974984;28;21181;-75
2024/01/12 18:53:17;;;;;;;91.03;26.50;;;;;;;;;;4975078;28;20487;-76
2024/01/12 18:55:43;;;;;;;90.17;28.97;;;;;;;;;;4974908;28;20797;-75
2024/01/12 18:58:09;;;;;;;94.07;31.20;;;;;;;;;;4975549;28;20888;-76
2024/01/12 19:00:36;;;;;;;80.90;27.80;;;;;;;;;;4975808;28;20755;-77
2024/01/12 19:03:04;;;;;;;94.80;29.70;;;;;;;;;;4974659;28;20843;-75
2024/01/12 19:05:31;;;;;;;91.97;29.30;;;;;;;;;;4975006;28;20431;-74
2024/01/12 19:07:58;;;;;;;91.43;27.07;;;;;;;;;;4974999;28;20435;-75
2024/01/12 19:10:25;;;;;;;98.40;31.90;;;;;;;;;;4978119;28;20502;-74
2024/01/12 19:12:52;;;;;;;79.90;28.03;;;;;;;;;;4995387;28;20446;-75
2024/01/12 19:15:18;;;;;;;80.33;28.43;;;;;;;;;;4984070;28;20464;-76
2024/01/12 19:17:44;;;;;;;71.67;25.57;;;;;;;;;;4996563;28;20427;-76
2024/01/12 19:20:11;;;;;;;83.70;27.53;;;;;;;;;;4993123;28;20921;-76
2024/01/12 19:22:37;;;;;;;77.73;25.90;;;;;;;;;;4986506;28;20482;-77
2024/01/12 19:25:04;;;;;;;81.10;27.40;;;;;;;;;;4992284;28;20435;-73
2024/01/12 19:27:30;;;;;;;89.80;26.67;;;;;;;;;;4985511;28;20454;-73
2024/01/12 19:29:56;;;;;;;97.60;28.40;;;;;;;;;;4994693;28;20430;-74
2024/01/12 19:32:22;;;;;;;82.93;26.93;;;;;;;;;;4986361;28;20422;-74
2024/01/12 19:34:49;;;;;;;102.20;30.77;;;;;;;;;;4983682;28;20443;-76
2024/01/12 19:37:17;;;;;;;84.97;28.73;;;;;;;;;;4990790;28;20887;-77
2024/01/12 19:39:43;;;;;;;81.73;27.13;;;;;;;;;;4991742;28;20415;-76
2024/01/12 19:42:09;;;;;;;75.87;25.03;;;;;;;;;;4984056;28;20470;-76
2024/01/12 19:44:35;;;;;;;68.00;25.27;;;;;;;;;;4984268;28;20435;-76
2024/01/12 19:47:01;;;;;;;72.90;25.97;;;;;;;;;;4990815;28;20414;-75
2024/01/12 19:49:27;;;;;;;81.73;25.43;;;;;;;;;;4980666;28;20408;-75
2024/01/12 19:51:53;;;;;;;79.67;27.30;;;;;;;;;;4991076;28;20928;-73
2024/01/12 19:54:19;;;;;;;77.80;27.07;;;;;;;;;;4984545;28;20478;-72
2024/01/12 19:56:45;;;;;;;88.47;27.87;;;;;;;;;;4985929;28;20898;-75
2024/01/12 19:59:14;;;;;;;78.23;24.57;;;;;;;;;;4984495;28;20470;-75
2024/01/12 20:01:40;;;;;;;82.73;27.30;;;;;;;;;;4986149;28;20481;-76
2024/01/12 20:04:06;;;;;;;65.40;23.70;;;;;;;;;;4979692;28;20835;-75
2024/01/12 20:06:32;;;;;;;86.77;26.17;;;;;;;;;;4985689;28;20420;-75
2024/01/12 20:08:58;;;;;;;85.20;26.70;;;;;;;;;;4981697;28;20422;-75
2024/01/12 20:11:24;;;;;;;78.47;26.07;;;;;;;;;;4983656;28;20411;-74